sensor_id;sensor_type;location;lat;lon;timestamp;pressure;altitude;pressure_sealevel;temperature;humidity
41044;BME280;51680;49.806;18.774;2023-02-17T00:00:37;97987.41;;;5.90;65.18
41044;BME280;51680;49.806;18.774;2023-02-17T00:03:39;97987.63;;;5.84;66.00
41044;BME280;51680;49.806;18.774;2023-02-17T00:06:41;97983.47;;;5.78;65.94
41044;BME280;51680;49.806;18.774;2023-02-17T00:09:44;97989.63;;;5.76;66.73
41044;BME280;51680;49.806;18.774;2023-02-17T00:12:46;97988.66;;;5.78;66.51
41044;BME280;51680;49.806;18.774;2023-02-17T00:15:47;97991.88;;;5.86;66.17
41044;BME280;51680;49.806;18.774;2023-02-17T00:18:52;97990.19;;;5.85;67.09
41044;BME280;51680;49.806;18.774;2023-02-17T00:21:59;97988.19;;;5.67;67.79
41044;BME280;51680;49.806;18.774;2023-02-17T00:25:02;97980.44;;;5.67;66.58
41044;BME280;51680;49.806;18.774;2023-02-17T00:28:04;97986.66;;;5.62;66.94
41044;BME280;51680;49.806;18.774;2023-02-17T00:31:07;97989.16;;;5.65;66.63
41044;BME280;51680;49.806;18.774;2023-02-17T00:34:09;97991.00;;;5.61;67.05
41044;BME280;51680;49.806;18.774;2023-02-17T00:37:11;97985.50;;;5.70;66.60
41044;BME280;51680;49.806;18.774;2023-02-17T00:40:14;97982.75;;;5.75;66.27
41044;BME280;51680;49.806;18.774;2023-02-17T00:43:16;97980.13;;;5.76;66.04
41044;BME280;51680;49.806;18.774;2023-02-17T00:46:18;97975.94;;;5.72;66.57
41044;BME280;51680;49.806;18.774;2023-02-17T00:49:22;97983.66;;;5.74;66.62
41044;BME280;51680;49.806;18.774;2023-02-17T00:52:24;97977.75;;;5.70;66.96
41044;BME280;51680;49.806;18.774;2023-02-17T00:55:27;97976.03;;;5.69;66.95
41044;BME280;51680;49.806;18.774;2023-02-17T00:58:29;97976.38;;;5.60;67.53
41044;BME280;51680;49.806;18.774;2023-02-17T01:01:31;97978.97;;;5.60;67.26
41044;BME280;51680;49.806;18.774;2023-02-17T01:04:32;97966.72;;;5.65;66.88
41044;BME280;51680;49.806;18.774;2023-02-17T01:07:34;97954.63;;;5.64;66.81
41044;BME280;51680;49.806;18.774;2023-02-17T01:10:38;97954.63;;;5.64;66.73
41044;BME280;51680;49.806;18.774;2023-02-17T01:13:42;97956.63;;;5.58;67.06
41044;BME280;51680;49.806;18.774;2023-02-17T01:16:45;97953.41;;;5.51;67.42
41044;BME280;51680;49.806;18.774;2023-02-17T01:19:47;97943.59;;;5.59;67.17
41044;BME280;51680;49.806;18.774;2023-02-17T01:22:50;97937.63;;;5.57;67.32
41044;BME280;51680;49.806;18.774;2023-02-17T01:25:53;97924.91;;;5.51;67.94
41044;BME280;51680;49.806;18.774;2023-02-17T01:28:56;97929.91;;;5.56;67.81
41044;BME280;51680;49.806;18.774;2023-02-17T01:31:58;97934.16;;;5.58;67.39
41044;BME280;51680;49.806;18.774;2023-02-17T01:35:00;97942.13;;;5.52;67.72
41044;BME280;51680;49.806;18.774;2023-02-17T01:38:02;97935.16;;;5.54;68.20
41044;BME280;51680;49.806;18.774;2023-02-17T01:41:06;97927.97;;;5.62;67.61
41044;BME280;51680;49.806;18.774;2023-02-17T01:44:14;97935.41;;;5.71;68.21
41044;BME280;51680;49.806;18.774;2023-02-17T01:47:35;97935.69;;;5.64;67.85
41044;BME280;51680;49.806;18.774;2023-02-17T01:50:41;97932.22;;;5.63;68.23
41044;BME280;51680;49.806;18.774;2023-02-17T01:53:46;97924.09;;;5.49;68.21
41044;BME280;51680;49.806;18.774;2023-02-17T01:56:51;97926.66;;;5.51;67.95
41044;BME280;51680;49.806;18.774;2023-02-17T01:59:53;97925.88;;;5.49;68.39
41044;BME280;51680;49.806;18.774;2023-02-17T02:02:56;97926.00;;;5.44;68.46
41044;BME280;51680;49.806;18.774;2023-02-17T02:05:58;97920.06;;;5.42;68.50
41044;BME280;51680;49.806;18.774;2023-02-17T02:09:03;97913.06;;;5.44;68.24
41044;BME280;51680;49.806;18.774;2023-02-17T02:12:18;97913.19;;;5.41;69.15
41044;BME280;51680;49.806;18.774;2023-02-17T02:15:21;97914.28;;;5.34;70.62
41044;BME280;51680;49.806;18.774;2023-02-17T02:18:31;97915.88;;;5.38;68.66
41044;BME280;51680;49.806;18.774;2023-02-17T02:22:11;97919.44;;;5.36;69.92
41044;BME280;51680;49.806;18.774;2023-02-17T02:25:32;97914.75;;;5.22;70.24
41044;BME280;51680;49.806;18.774;2023-02-17T02:28:52;97908.66;;;5.23;69.60
41044;BME280;51680;49.806;18.774;2023-02-17T02:32:15;97909.75;;;5.16;70.31
41044;BME280;51680;49.806;18.774;2023-02-17T02:35:20;97905.44;;;5.17;69.47
41044;BME280;51680;49.806;18.774;2023-02-17T02:38:28;97902.00;;;5.16;70.10
41044;BME280;51680;49.806;18.774;2023-02-17T02:41:35;97896.34;;;5.30;68.53
41044;BME280;51680;49.806;18.774;2023-02-17T02:44:38;97894.44;;;5.35;68.39
41044;BME280;51680;49.806;18.774;2023-02-17T02:47:47;97882.97;;;5.42;69.82
41044;BME280;51680;49.806;18.774;2023-02-17T02:51:00;97885.19;;;5.52;68.57
41044;BME280;51680;49.806;18.774;2023-02-17T02:54:21;97889.22;;;5.59;69.08
41044;BME280;51680;49.806;18.774;2023-02-17T02:57:36;97897.78;;;5.61;69.43
41044;BME280;51680;49.806;18.774;2023-02-17T03:00:49;97894.00;;;5.70;68.43
41044;BME280;51680;49.806;18.774;2023-02-17T03:04:03;97887.66;;;5.78;68.29
41044;BME280;51680;49.806;18.774;2023-02-17T03:07:12;97880.53;;;5.85;68.13
41044;BME280;51680;49.806;18.774;2023-02-17T03:10:21;97885.72;;;5.85;68.24
41044;BME280;51680;49.806;18.774;2023-02-17T03:13:23;97883.56;;;5.96;67.68
41044;BME280;51680;49.806;18.774;2023-02-17T03:16:25;97875.72;;;5.97;68.13
41044;BME280;51680;49.806;18.774;2023-02-17T03:19:29;97866.84;;;6.04;68.05
41044;BME280;51680;49.806;18.774;2023-02-17T03:22:32;97869.78;;;6.17;67.95
41044;BME280;51680;49.806;18.774;2023-02-17T03:25:36;97880.97;;;6.17;67.94
41044;BME280;51680;49.806;18.774;2023-02-17T03:28:38;97867.81;;;6.23;67.94
41044;BME280;51680;49.806;18.774;2023-02-17T03:31:39;97855.19;;;6.36;68.12
41044;BME280;51680;49.806;18.774;2023-02-17T03:34:43;97852.09;;;6.48;68.40
41044;BME280;51680;49.806;18.774;2023-02-17T03:37:44;97845.78;;;6.55;67.81
41044;BME280;51680;49.806;18.774;2023-02-17T03:40:46;97848.97;;;6.61;67.91
41044;BME280;51680;49.806;18.774;2023-02-17T03:43:48;97839.97;;;6.70;67.84
41044;BME280;51680;49.806;18.774;2023-02-17T03:46:50;97844.72;;;6.80;67.65
41044;BME280;51680;49.806;18.774;2023-02-17T03:49:53;97850.81;;;6.99;67.04
41044;BME280;51680;49.806;18.774;2023-02-17T03:52:54;97848.47;;;7.13;66.77
41044;BME280;51680;49.806;18.774;2023-02-17T03:55:56;97842.84;;;7.22;66.69
41044;BME280;51680;49.806;18.774;2023-02-17T03:58:58;97845.22;;;7.28;66.87
41044;BME280;51680;49.806;18.774;2023-02-17T04:01:59;97839.09;;;7.29;67.02
41044;BME280;51680;49.806;18.774;2023-02-17T04:05:03;97840.00;;;7.28;67.37
41044;BME280;51680;49.806;18.774;2023-02-17T04:08:04;97844.13;;;7.32;67.03
41044;BME280;51680;49.806;18.774;2023-02-17T04:11:08;97838.06;;;7.33;67.28
41044;BME280;51680;49.806;18.774;2023-02-17T04:14:10;97838.69;;;7.38;66.58
41044;BME280;51680;49.806;18.774;2023-02-17T04:17:11;97840.25;;;7.42;66.71
41044;BME280;51680;49.806;18.774;2023-02-17T04:20:14;97845.16;;;7.48;67.15
41044;BME280;51680;49.806;18.774;2023-02-17T04:23:16;97849.16;;;7.55;67.07
41044;BME280;51680;49.806;18.774;2023-02-17T04:26:18;97843.56;;;7.64;66.06
41044;BME280;51680;49.806;18.774;2023-02-17T04:29:20;97849.44;;;7.68;66.35
41044;BME280;51680;49.806;18.774;2023-02-17T04:32:21;97850.44;;;7.65;66.33
41044;BME280;51680;49.806;18.774;2023-02-17T04:35:25;97847.00;;;7.65;66.69
41044;BME280;51680;49.806;18.774;2023-02-17T04:38:27;97834.44;;;7.74;66.57
41044;BME280;51680;49.806;18.774;2023-02-17T04:41:30;97830.16;;;7.73;66.83
41044;BME280;51680;49.806;18.774;2023-02-17T04:44:31;97831.41;;;7.83;66.26
41044;BME280;51680;49.806;18.774;2023-02-17T04:47:52;97832.09;;;7.87;66.22
41044;BME280;51680;49.806;18.774;2023-02-17T04:50:55;97829.75;;;7.82;66.98
41044;BME280;51680;49.806;18.774;2023-02-17T04:53:57;97829.59;;;7.85;66.35
41044;BME280;51680;49.806;18.774;2023-02-17T04:56:59;97840.69;;;7.89;66.58
41044;BME280;51680;49.806;18.774;2023-02-17T05:00:00;97836.47;;;7.86;66.85
41044;BME280;51680;49.806;18.774;2023-02-17T05:03:02;97836.19;;;7.92;66.51
41044;BME280;51680;49.806;18.774;2023-02-17T05:06:06;97832.22;;;7.85;67.59
41044;BME280;51680;49.806;18.774;2023-02-17T05:09:08;97827.41;;;7.95;67.09
41044;BME280;51680;49.806;18.774;2023-02-17T05:12:10;97829.88;;;7.98;66.59
41044;BME280;51680;49.806;18.774;2023-02-17T05:15:12;97828.72;;;8.03;66.82
41044;BME280;51680;49.806;18.774;2023-02-17T05:18:14;97822.22;;;7.95;67.00
41044;BME280;51680;49.806;18.774;2023-02-17T05:21:17;97825.72;;;7.94;66.98
41044;BME280;51680;49.806;18.774;2023-02-17T05:24:18;97817.25;;;7.90;67.60
41044;BME280;51680;49.806;18.774;2023-02-17T05:27:20;97818.34;;;7.85;67.71
41044;BME280;51680;49.806;18.774;2023-02-17T05:30:22;97813.91;;;7.87;68.27
41044;BME280;51680;49.806;18.774;2023-02-17T05:33:24;97817.44;;;7.86;68.51
41044;BME280;51680;49.806;18.774;2023-02-17T05:36:27;97805.59;;;7.80;69.06
41044;BME280;51680;49.806;18.774;2023-02-17T05:39:29;97811.03;;;7.74;69.32
41044;BME280;51680;49.806;18.774;2023-02-17T05:42:31;97803.06;;;7.79;68.92
41044;BME280;51680;49.806;18.774;2023-02-17T05:45:32;97789.16;;;7.80;69.60
41044;BME280;51680;49.806;18.774;2023-02-17T05:48:34;97795.19;;;7.80;69.53
41044;BME280;51680;49.806;18.774;2023-02-17T05:51:37;97791.69;;;7.81;69.63
41044;BME280;51680;49.806;18.774;2023-02-17T05:54:39;97785.94;;;7.92;69.00
41044;BME280;51680;49.806;18.774;2023-02-17T05:57:41;97789.19;;;7.97;69.10
41044;BME280;51680;49.806;18.774;2023-02-17T06:00:43;97787.72;;;7.91;70.18
41044;BME280;51680;49.806;18.774;2023-02-17T06:03:45;97780.69;;;7.93;69.95
41044;BME280;51680;49.806;18.774;2023-02-17T06:06:48;97785.94;;;7.92;70.18
41044;BME280;51680;49.806;18.774;2023-02-17T06:09:50;97781.25;;;8.00;69.89
41044;BME280;51680;49.806;18.774;2023-02-17T06:12:52;97776.13;;;7.98;70.47
41044;BME280;51680;49.806;18.774;2023-02-17T06:15:53;97776.28;;;8.12;69.71
41044;BME280;51680;49.806;18.774;2023-02-17T06:18:55;97770.56;;;8.24;69.16
41044;BME280;51680;49.806;18.774;2023-02-17T06:22:00;97773.50;;;8.17;71.66
41044;BME280;51680;49.806;18.774;2023-02-17T06:25:02;97763.44;;;8.28;69.25
41044;BME280;51680;49.806;18.774;2023-02-17T06:28:04;97766.88;;;8.45;68.89
41044;BME280;51680;49.806;18.774;2023-02-17T06:31:06;97760.47;;;8.52;68.66
41044;BME280;51680;49.806;18.774;2023-02-17T06:34:07;97761.09;;;8.57;69.29
41044;BME280;51680;49.806;18.774;2023-02-17T06:37:10;97749.72;;;8.75;68.56
41044;BME280;51680;49.806;18.774;2023-02-17T06:40:13;97757.41;;;8.78;68.94
41044;BME280;51680;49.806;18.774;2023-02-17T06:43:15;97748.88;;;8.92;68.35
41044;BME280;51680;49.806;18.774;2023-02-17T06:46:16;97749.44;;;9.14;67.52
41044;BME280;51680;49.806;18.774;2023-02-17T06:49:18;97741.56;;;9.31;67.23
41044;BME280;51680;49.806;18.774;2023-02-17T06:52:21;97749.34;;;9.48;66.68
41044;BME280;51680;49.806;18.774;2023-02-17T06:55:23;97741.09;;;9.55;66.29
41044;BME280;51680;49.806;18.774;2023-02-17T06:58:25;97740.59;;;9.64;66.26
41044;BME280;51680;49.806;18.774;2023-02-17T07:01:27;97755.38;;;9.64;66.23
41044;BME280;51680;49.806;18.774;2023-02-17T07:04:28;97738.34;;;9.58;66.13
41044;BME280;51680;49.806;18.774;2023-02-17T07:07:31;97738.25;;;9.75;65.78
41044;BME280;51680;49.806;18.774;2023-02-17T07:10:33;97743.81;;;9.85;65.29
41044;BME280;51680;49.806;18.774;2023-02-17T07:13:35;97748.50;;;9.94;65.10
41044;BME280;51680;49.806;18.774;2023-02-17T07:16:37;97740.94;;;10.05;64.74
41044;BME280;51680;49.806;18.774;2023-02-17T07:19:39;97742.63;;;10.06;64.78
41044;BME280;51680;49.806;18.774;2023-02-17T07:22:42;97748.69;;;10.06;64.66
41044;BME280;51680;49.806;18.774;2023-02-17T07:25:44;97737.31;;;10.07;63.78
41044;BME280;51680;49.806;18.774;2023-02-17T07:28:45;97748.19;;;10.15;64.25
41044;BME280;51680;49.806;18.774;2023-02-17T07:31:47;97744.44;;;10.19;63.93
41044;BME280;51680;49.806;18.774;2023-02-17T07:34:49;97744.63;;;10.32;63.83
41044;BME280;51680;49.806;18.774;2023-02-17T07:37:52;97745.19;;;10.37;63.53
41044;BME280;51680;49.806;18.774;2023-02-17T07:40:54;97735.41;;;10.40;63.05
41044;BME280;51680;49.806;18.774;2023-02-17T07:43:56;97745.66;;;10.43;62.92
41044;BME280;51680;49.806;18.774;2023-02-17T07:46:58;97747.88;;;10.35;63.62
41044;BME280;51680;49.806;18.774;2023-02-17T07:50:00;97746.59;;;10.42;63.45
41044;BME280;51680;49.806;18.774;2023-02-17T07:53:03;97739.84;;;10.38;63.74
41044;BME280;51680;49.806;18.774;2023-02-17T07:56:06;97748.97;;;10.31;63.83
41044;BME280;51680;49.806;18.774;2023-02-17T07:59:08;97740.25;;;10.17;63.71
41044;BME280;51680;49.806;18.774;2023-02-17T08:02:10;97743.34;;;10.23;63.66
41044;BME280;51680;49.806;18.774;2023-02-17T08:05:12;97734.25;;;10.30;63.58
41044;BME280;51680;49.806;18.774;2023-02-17T08:08:15;97723.25;;;10.25;63.55
41044;BME280;51680;49.806;18.774;2023-02-17T08:11:34;97718.63;;;10.15;63.37
41044;BME280;51680;49.806;18.774;2023-02-17T08:14:56;97722.31;;;10.26;63.42
41044;BME280;51680;49.806;18.774;2023-02-17T08:17:57;97726.94;;;10.37;63.23
41044;BME280;51680;49.806;18.774;2023-02-17T08:21:00;97727.94;;;10.34;63.17
41044;BME280;51680;49.806;18.774;2023-02-17T08:24:03;97719.91;;;10.37;62.84
41044;BME280;51680;49.806;18.774;2023-02-17T08:27:05;97729.63;;;10.35;63.16
41044;BME280;51680;49.806;18.774;2023-02-17T08:30:08;97732.03;;;10.38;63.54
41044;BME280;51680;49.806;18.774;2023-02-17T08:33:09;97736.22;;;10.41;63.71
41044;BME280;51680;49.806;18.774;2023-02-17T08:36:17;97732.78;;;10.40;64.17
41044;BME280;51680;49.806;18.774;2023-02-17T08:39:21;97736.50;;;10.36;64.89
41044;BME280;51680;49.806;18.774;2023-02-17T08:42:24;97723.75;;;10.16;66.05
41044;BME280;51680;49.806;18.774;2023-02-17T08:45:29;97732.03;;;10.09;68.16
41044;BME280;51680;49.806;18.774;2023-02-17T08:48:31;97729.81;;;10.01;68.63
41044;BME280;51680;49.806;18.774;2023-02-17T08:51:33;97724.19;;;9.93;69.09
41044;BME280;51680;49.806;18.774;2023-02-17T08:54:36;97713.84;;;9.92;69.71
41044;BME280;51680;49.806;18.774;2023-02-17T08:57:38;97716.38;;;9.78;71.04
41044;BME280;51680;49.806;18.774;2023-02-17T09:00:40;97719.31;;;9.72;71.83
41044;BME280;51680;49.806;18.774;2023-02-17T09:03:42;97722.59;;;9.75;72.40
41044;BME280;51680;49.806;18.774;2023-02-17T09:06:45;97730.34;;;9.77;72.94
41044;BME280;51680;49.806;18.774;2023-02-17T09:09:49;97731.84;;;9.65;73.91
41044;BME280;51680;49.806;18.774;2023-02-17T09:12:51;97728.31;;;9.66;73.92
41044;BME280;51680;49.806;18.774;2023-02-17T09:15:53;97727.31;;;9.69;74.64
41044;BME280;51680;49.806;18.774;2023-02-17T09:18:55;97730.69;;;9.71;74.11
41044;BME280;51680;49.806;18.774;2023-02-17T09:21:56;97729.47;;;9.76;74.07
41044;BME280;51680;49.806;18.774;2023-02-17T09:25:00;97729.59;;;9.75;74.59
41044;BME280;51680;49.806;18.774;2023-02-17T09:28:01;97742.13;;;9.84;74.07
41044;BME280;51680;49.806;18.774;2023-02-17T09:31:07;97744.31;;;9.76;75.15
41044;BME280;51680;49.806;18.774;2023-02-17T09:34:09;97740.09;;;9.73;75.00
41044;BME280;51680;49.806;18.774;2023-02-17T09:37:12;97735.03;;;9.70;75.09
41044;BME280;51680;49.806;18.774;2023-02-17T09:40:17;97750.19;;;9.64;75.65
41044;BME280;51680;49.806;18.774;2023-02-17T09:43:24;97751.53;;;9.55;75.62
41044;BME280;51680;49.806;18.774;2023-02-17T09:46:29;97748.66;;;9.44;75.99
41044;BME280;51680;49.806;18.774;2023-02-17T09:49:35;97727.97;;;9.41;76.92
41044;BME280;51680;49.806;18.774;2023-02-17T09:52:43;97725.25;;;9.27;78.19
41044;BME280;51680;49.806;18.774;2023-02-17T09:55:51;97720.84;;;9.29;77.80
41044;BME280;51680;49.806;18.774;2023-02-17T09:58:57;97719.47;;;9.22;77.87
41044;BME280;51680;49.806;18.774;2023-02-17T10:02:05;97716.19;;;9.19;78.60
41044;BME280;51680;49.806;18.774;2023-02-17T10:05:13;97709.97;;;9.21;77.82
41044;BME280;51680;49.806;18.774;2023-02-17T10:08:20;97704.75;;;9.21;78.25
41044;BME280;51680;49.806;18.774;2023-02-17T10:11:28;97704.75;;;9.21;79.40
41044;BME280;51680;49.806;18.774;2023-02-17T10:14:35;97709.97;;;9.21;78.77
41044;BME280;51680;49.806;18.774;2023-02-17T10:17:43;97700.28;;;9.23;79.03
41044;BME280;51680;49.806;18.774;2023-02-17T10:20:50;97704.00;;;9.19;78.92
41044;BME280;51680;49.806;18.774;2023-02-17T10:23:55;97703.06;;;9.05;79.44
41044;BME280;51680;49.806;18.774;2023-02-17T10:27:13;97707.00;;;8.96;80.85
41044;BME280;51680;49.806;18.774;2023-02-17T10:30:25;97703.53;;;8.96;80.52
41044;BME280;51680;49.806;18.774;2023-02-17T10:33:34;97694.13;;;8.93;80.70
41044;BME280;51680;49.806;18.774;2023-02-17T10:36:45;97695.78;;;8.94;80.62
41044;BME280;51680;49.806;18.774;2023-02-17T10:39:52;97693.41;;;8.74;81.83
41044;BME280;51680;49.806;18.774;2023-02-17T10:42:59;97691.72;;;8.73;81.62
41044;BME280;51680;49.806;18.774;2023-02-17T10:46:05;97689.78;;;8.77;81.12
41044;BME280;51680;49.806;18.774;2023-02-17T10:49:15;97690.34;;;8.66;82.66
41044;BME280;51680;49.806;18.774;2023-02-17T10:52:21;97682.25;;;8.55;83.38
41044;BME280;51680;49.806;18.774;2023-02-17T10:55:30;97678.66;;;8.58;82.55
41044;BME280;51680;49.806;18.774;2023-02-17T10:58:40;97674.78;;;8.49;83.15
41044;BME280;51680;49.806;18.774;2023-02-17T11:01:47;97678.59;;;8.42;83.47
41044;BME280;51680;49.806;18.774;2023-02-17T11:04:51;97674.38;;;8.57;82.33
41044;BME280;51680;49.806;18.774;2023-02-17T11:08:24;97672.63;;;8.57;83.87
41044;BME280;51680;49.806;18.774;2023-02-17T11:11:31;97667.72;;;8.51;83.28
41044;BME280;51680;49.806;18.774;2023-02-17T11:14:34;97671.03;;;8.38;87.19
41044;BME280;51680;49.806;18.774;2023-02-17T11:17:38;97661.75;;;8.49;83.23
41044;BME280;51680;49.806;18.774;2023-02-17T11:20:41;97663.22;;;8.38;84.20
41044;BME280;51680;49.806;18.774;2023-02-17T11:23:47;97660.63;;;8.38;84.29
41044;BME280;51680;49.806;18.774;2023-02-17T11:26:57;97648.97;;;8.45;84.11
41044;BME280;51680;49.806;18.774;2023-02-17T11:30:15;97653.34;;;8.44;85.31
41044;BME280;51680;49.806;18.774;2023-02-17T11:33:20;97639.66;;;8.41;84.63
41044;BME280;51680;49.806;18.774;2023-02-17T11:36:25;97643.94;;;8.42;84.34
41044;BME280;51680;49.806;18.774;2023-02-17T11:39:27;97632.75;;;8.40;85.36
41044;BME280;51680;49.806;18.774;2023-02-17T11:42:31;97626.34;;;8.47;84.45
41044;BME280;51680;49.806;18.774;2023-02-17T11:45:36;97636.97;;;8.42;88.58
41044;BME280;51680;49.806;18.774;2023-02-17T11:52:16;97619.47;;;8.61;84.96
41044;BME280;51680;49.806;18.774;2023-02-17T11:55:22;97614.81;;;8.68;84.60
41044;BME280;51680;49.806;18.774;2023-02-17T11:58:37;97608.53;;;8.72;84.48
41044;BME280;51680;49.806;18.774;2023-02-17T12:02:07;97606.59;;;8.75;85.36
41044;BME280;51680;49.806;18.774;2023-02-17T12:05:21;97596.38;;;8.72;84.54
41044;BME280;51680;49.806;18.774;2023-02-17T12:08:34;97598.38;;;8.83;83.48
41044;BME280;51680;49.806;18.774;2023-02-17T12:11:43;97595.63;;;8.86;83.57
41044;BME280;51680;49.806;18.774;2023-02-17T12:18:27;97578.41;;;8.83;84.89
41044;BME280;51680;49.806;18.774;2023-02-17T12:21:42;97577.56;;;8.98;83.81
41044;BME280;51680;49.806;18.774;2023-02-17T12:24:57;97579.50;;;9.10;83.44
41044;BME280;51680;49.806;18.774;2023-02-17T12:28:25;97558.50;;;9.13;83.42
41044;BME280;51680;49.806;18.774;2023-02-17T12:31:46;97560.28;;;9.13;82.87
41044;BME280;51680;49.806;18.774;2023-02-17T12:34:55;97571.50;;;9.13;82.04
41044;BME280;51680;49.806;18.774;2023-02-17T12:38:01;97560.59;;;9.22;81.70
41044;BME280;51680;49.806;18.774;2023-02-17T12:41:06;97546.47;;;9.26;81.86
41044;BME280;51680;49.806;18.774;2023-02-17T12:44:12;97549.50;;;9.34;81.42
41044;BME280;51680;49.806;18.774;2023-02-17T12:47:19;97545.81;;;9.52;81.30
41044;BME280;51680;49.806;18.774;2023-02-17T12:50:29;97550.94;;;9.54;81.55
41044;BME280;51680;49.806;18.774;2023-02-17T12:53:39;97538.28;;;9.48;81.64
41044;BME280;51680;49.806;18.774;2023-02-17T12:56:50;97515.69;;;9.48;81.38
41044;BME280;51680;49.806;18.774;2023-02-17T12:59:55;97523.13;;;9.54;80.92
41044;BME280;51680;49.806;18.774;2023-02-17T13:03:01;97522.56;;;9.49;81.06
41044;BME280;51680;49.806;18.774;2023-02-17T13:06:18;97509.44;;;9.51;81.20
41044;BME280;51680;49.806;18.774;2023-02-17T13:09:28;97514.13;;;9.60;80.79
41044;BME280;51680;49.806;18.774;2023-02-17T13:12:34;97506.19;;;9.61;80.83
41044;BME280;51680;49.806;18.774;2023-02-17T13:15:38;97502.50;;;9.65;80.90
41044;BME280;51680;49.806;18.774;2023-02-17T13:18:43;97500.97;;;9.61;80.81
41044;BME280;51680;49.806;18.774;2023-02-17T13:21:51;97490.84;;;9.57;81.02
41044;BME280;51680;49.806;18.774;2023-02-17T13:24:53;97480.13;;;9.61;80.19
41044;BME280;51680;49.806;18.774;2023-02-17T13:27:56;97485.06;;;9.52;80.33
41044;BME280;51680;49.806;18.774;2023-02-17T13:31:08;97477.31;;;9.50;81.12
41044;BME280;51680;49.806;18.774;2023-02-17T13:34:23;97476.03;;;9.57;80.91
41044;BME280;51680;49.806;18.774;2023-02-17T13:37:38;97469.72;;;9.61;80.88
41044;BME280;51680;49.806;18.774;2023-02-17T13:40:42;97478.91;;;9.53;80.85
41044;BME280;51680;49.806;18.774;2023-02-17T13:43:43;97472.88;;;9.66;80.06
41044;BME280;51680;49.806;18.774;2023-02-17T13:46:45;97463.97;;;9.70;79.92
41044;BME280;51680;49.806;18.774;2023-02-17T13:49:51;97467.50;;;9.69;80.50
41044;BME280;51680;49.806;18.774;2023-02-17T13:52:54;97464.16;;;9.67;80.56
41044;BME280;51680;49.806;18.774;2023-02-17T13:55:58;97457.78;;;9.57;81.67
41044;BME280;51680;49.806;18.774;2023-02-17T13:59:08;97449.06;;;9.58;82.30
41044;BME280;51680;49.806;18.774;2023-02-17T14:02:17;97457.69;;;9.59;81.95
41044;BME280;51680;49.806;18.774;2023-02-17T14:05:20;97447.97;;;9.62;82.02
41044;BME280;51680;49.806;18.774;2023-02-17T14:08:31;97450.38;;;9.65;82.01
41044;BME280;51680;49.806;18.774;2023-02-17T14:11:54;97436.59;;;9.63;82.16
41044;BME280;51680;49.806;18.774;2023-02-17T14:14:56;97441.97;;;9.60;82.57
41044;BME280;51680;49.806;18.774;2023-02-17T14:17:58;97447.38;;;9.57;82.84
41044;BME280;51680;49.806;18.774;2023-02-17T14:21:05;97444.47;;;9.48;84.02
41044;BME280;51680;49.806;18.774;2023-02-17T14:24:23;97444.47;;;9.48;84.83
41044;BME280;51680;49.806;18.774;2023-02-17T14:27:25;97432.09;;;9.51;83.48
41044;BME280;51680;49.806;18.774;2023-02-17T14:30:28;97430.72;;;9.46;83.95
41044;BME280;51680;49.806;18.774;2023-02-17T14:33:30;97418.34;;;9.49;83.91
41044;BME280;51680;49.806;18.774;2023-02-17T14:36:33;97416.28;;;9.54;83.87
41044;BME280;51680;49.806;18.774;2023-02-17T14:39:37;97401.47;;;9.55;83.67
41044;BME280;51680;49.806;18.774;2023-02-17T14:42:38;97402.13;;;9.44;84.67
41044;BME280;51680;49.806;18.774;2023-02-17T14:45:40;97389.19;;;9.43;84.28
41044;BME280;51680;49.806;18.774;2023-02-17T14:48:42;97381.28;;;9.30;85.62
41044;BME280;51680;49.806;18.774;2023-02-17T14:51:44;97373.66;;;9.41;84.69
41044;BME280;51680;49.806;18.774;2023-02-17T14:54:47;97362.66;;;9.36;85.34
41044;BME280;51680;49.806;18.774;2023-02-17T14:57:49;97360.91;;;9.37;84.82
41044;BME280;51680;49.806;18.774;2023-02-17T15:00:51;97341.75;;;9.38;85.40
41044;BME280;51680;49.806;18.774;2023-02-17T15:03:53;97344.91;;;9.43;84.97
41044;BME280;51680;49.806;18.774;2023-02-17T15:06:55;97346.09;;;9.37;85.90
41044;BME280;51680;49.806;18.774;2023-02-17T15:09:58;97351.88;;;9.42;85.22
41044;BME280;51680;49.806;18.774;2023-02-17T15:13:00;97344.19;;;9.41;85.06
41044;BME280;51680;49.806;18.774;2023-02-17T15:16:01;97338.19;;;9.39;84.84
41044;BME280;51680;49.806;18.774;2023-02-17T15:19:25;97344.25;;;9.39;84.74
41044;BME280;51680;49.806;18.774;2023-02-17T15:22:26;97340.72;;;9.40;84.74
41044;BME280;51680;49.806;18.774;2023-02-17T15:25:30;97343.25;;;9.42;85.05
41044;BME280;51680;49.806;18.774;2023-02-17T15:28:39;97338.84;;;9.42;85.22
41044;BME280;51680;49.806;18.774;2023-02-17T15:31:40;97332.19;;;9.38;85.42
41044;BME280;51680;49.806;18.774;2023-02-17T15:34:43;97327.22;;;9.48;84.66
41044;BME280;51680;49.806;18.774;2023-02-17T15:37:45;97323.69;;;9.49;84.86
41044;BME280;51680;49.806;18.774;2023-02-17T15:40:48;97327.88;;;9.51;84.69
41044;BME280;51680;49.806;18.774;2023-02-17T15:43:51;97311.31;;;9.52;85.04
41044;BME280;51680;49.806;18.774;2023-02-17T15:46:55;97302.75;;;9.50;85.10
41044;BME280;51680;49.806;18.774;2023-02-17T15:49:56;97301.81;;;9.51;84.88
41044;BME280;51680;49.806;18.774;2023-02-17T15:52:58;97280.25;;;9.49;85.16
41044;BME280;51680;49.806;18.774;2023-02-17T15:56:01;97276.53;;;9.53;84.74
41044;BME280;51680;49.806;18.774;2023-02-17T15:59:08;97264.63;;;9.49;84.87
41044;BME280;51680;49.806;18.774;2023-02-17T16:02:17;97261.22;;;9.61;84.26
41044;BME280;51680;49.806;18.774;2023-02-17T16:05:23;97267.75;;;9.68;83.73
41044;BME280;51680;49.806;18.774;2023-02-17T16:08:26;97258.16;;;9.69;84.02
41044;BME280;51680;49.806;18.774;2023-02-17T16:11:30;97259.84;;;9.70;83.84
41044;BME280;51680;49.806;18.774;2023-02-17T16:14:33;97265.88;;;9.70;83.86
41044;BME280;51680;49.806;18.774;2023-02-17T16:17:36;97264.50;;;9.65;84.80
41044;BME280;51680;49.806;18.774;2023-02-17T16:20:37;97273.69;;;9.70;84.47
41044;BME280;51680;49.806;18.774;2023-02-17T16:23:40;97285.91;;;9.70;85.11
41044;BME280;51680;49.806;18.774;2023-02-17T16:26:44;97274.47;;;9.72;85.50